SWA1419 KCMH-KMDW
Flight info
| Callsign | SWA1419 |
|---|---|
| Flight time | N/A |
| Altitude | 30000 |
| Route | PKACZ TARRY ROD FWA PANGG7 |
| Aircraft | B38M/M-SADE2E3GHIJ4J7P2RWZ/LB1D1 |
Departure
| Time | 2026-05-09 02:09 |
|---|---|
| Airport | John Glenn Columbus International Airport (KCMH) |
Arrival
| Time | N/A |
|---|---|
| Airport | Chicago Midway International Airport (KMDW) |
| Time | Latitude | Longitude | Altitude | Speed | Heading |
|---|---|---|---|---|---|
| 2026-05-09 01:44 | 39.99651 | -82.88496 | 823 ft | 0 kts | 15° |
| 2026-05-09 01:57 | 39.99650 | -82.88496 | 823 ft | 2 kts | 15° |
| 2026-05-09 01:58 | 39.99634 | -82.88501 | 812 ft | 2 kts | 8° |
| 2026-05-09 01:58 | 39.99618 | -82.88502 | 822 ft | 2 kts | 357° |
| 2026-05-09 01:58 | 39.99603 | -82.88500 | 820 ft | 2 kts | 4° |
| 2026-05-09 01:58 | 39.99589 | -82.88510 | 817 ft | 2 kts | 93° |
| 2026-05-09 01:59 | 39.99592 | -82.88530 | 818 ft | 1 kts | 96° |
| 2026-05-09 01:59 | 39.99592 | -82.88534 | 820 ft | 0 kts | 95° |
| 2026-05-09 02:02 | 39.99592 | -82.88532 | 822 ft | 1 kts | 95° |
| 2026-05-09 02:03 | 39.99590 | -82.88509 | 822 ft | 4 kts | 94° |
| 2026-05-09 02:03 | 39.99588 | -82.88455 | 821 ft | 8 kts | 94° |
| 2026-05-09 02:03 | 39.99584 | -82.88371 | 818 ft | 11 kts | 91° |
| 2026-05-09 02:03 | 39.99615 | -82.88282 | 819 ft | 9 kts | 79° |
| 2026-05-09 02:04 | 39.99613 | -82.88187 | 821 ft | 14 kts | 94° |
| 2026-05-09 02:04 | 39.99604 | -82.88043 | 823 ft | 16 kts | 95° |
| 2026-05-09 02:04 | 39.99595 | -82.87899 | 825 ft | 16 kts | 95° |
| 2026-05-09 02:04 | 39.99578 | -82.87758 | 824 ft | 16 kts | 106° |
| 2026-05-09 02:05 | 39.99567 | -82.87614 | 827 ft | 17 kts | 93° |
| 2026-05-09 02:05 | 39.99557 | -82.87462 | 827 ft | 18 kts | 96° |
| 2026-05-09 02:05 | 39.99535 | -82.87302 | 823 ft | 16 kts | 132° |
| 2026-05-09 02:05 | 39.99474 | -82.87295 | 825 ft | 9 kts | 186° |
| 2026-05-09 02:06 | 39.99405 | -82.87303 | 825 ft | 11 kts | 184° |
| 2026-05-09 02:06 | 39.99310 | -82.87312 | 823 ft | 16 kts | 184° |
| 2026-05-09 02:06 | 39.99187 | -82.87342 | 822 ft | 19 kts | 219° |
| 2026-05-09 02:07 | 39.99199 | -82.87961 | 822 ft | 91 kts | 274° |
| 2026-05-09 02:07 | 39.99279 | -82.89101 | 828 ft | 158 kts | 284° |
| 2026-05-09 02:07 | 39.99372 | -82.90642 | 1081 ft | 187 kts | 274° |
| 2026-05-09 02:07 | 39.99382 | -82.92332 | 822 ft | 172 kts | 305° |
| 2026-05-09 02:08 | 39.99275 | -82.92445 | 825 ft | 0 kts | 246° |
| 2026-05-09 02:08 | 39.99357 | -82.92491 | 842 ft | 0 kts | 246° |
| 2026-05-09 02:08 | 39.99406 | -82.92345 | 890 ft | 0 kts | 246° |
| 2026-05-09 02:09 | 39.99054 | -82.93874 | 2174 ft | 143 kts | 269° |
| 2026-05-09 02:09 | 39.99235 | -82.95073 | 3231 ft | 147 kts | 311° |
| 2026-05-09 02:09 | 40.00199 | -82.96118 | 2856 ft | 192 kts | 310° |
| 2026-05-09 02:09 | 40.01142 | -82.97022 | 4390 ft | 136 kts | 338° |
| 2026-05-09 02:10 | 40.01684 | -82.97135 | 4540 ft | 150 kts | 10° |
| 2026-05-09 02:10 | 40.03207 | -82.96900 | 3232 ft | 177 kts | 336° |
| 2026-05-09 02:10 | 40.04227 | -82.97575 | 3156 ft | 153 kts | 317° |
| 2026-05-09 02:10 | 39.99651 | -82.88496 | 3243 ft | 8 kts | 15° |